createdAt,value
2023-06-05T00:02:17.272Z,8.45
2023-06-05T00:04:49.588Z,11.15
2023-06-05T00:07:21.630Z,14.73
2023-06-05T00:09:53.616Z,11.85
2023-06-05T00:12:25.670Z,10.77
2023-06-05T00:14:59.078Z,12.23
2023-06-05T00:17:31.629Z,10.25
2023-06-05T00:20:10.834Z,12.55
2023-06-05T00:25:17.711Z,19.83
2023-06-05T00:27:49.684Z,17.15
2023-06-05T00:30:23.083Z,17.67
2023-06-05T00:32:55.346Z,19.98
2023-06-05T00:35:27.360Z,18.75
2023-06-05T00:37:59.524Z,17.63
2023-06-05T00:40:31.539Z,26.52
2023-06-05T00:43:03.651Z,27.30
2023-06-05T00:45:37.091Z,22.83
2023-06-05T00:48:09.748Z,22.92
2023-06-05T00:50:41.982Z,23.45
2023-06-05T00:53:22.432Z,22.17
2023-06-05T00:55:54.758Z,17.23
2023-06-05T00:58:27.224Z,22.55
2023-06-05T01:01:02.236Z,17.80
2023-06-05T01:03:37.233Z,19.75
2023-06-05T01:06:09.258Z,19.70
2023-06-05T01:08:41.438Z,19.17
2023-06-05T01:11:21.164Z,18.75
2023-06-05T01:14:02.411Z,15.85
2023-06-05T01:16:37.908Z,20.55
2023-06-05T01:19:15.793Z,26.58
2023-06-05T01:21:47.978Z,17.35
2023-06-05T01:24:23.785Z,18.38
2023-06-05T01:27:03.628Z,16.83
2023-06-05T01:29:45.220Z,16.65
2023-06-05T01:32:26.231Z,14.77
2023-06-05T01:34:59.664Z,17.05
2023-06-05T01:37:37.626Z,17.58
2023-06-05T01:40:17.759Z,13.85
2023-06-05T01:42:51.560Z,15.27
2023-06-05T01:45:24.263Z,20.10
2023-06-05T01:47:58.075Z,21.13
2023-06-05T01:50:34.871Z,18.70
2023-06-05T01:53:08.416Z,19.10
2023-06-05T01:55:42.387Z,15.30
2023-06-05T01:58:14.925Z,17.67
2023-06-05T02:00:47.318Z,22.80
2023-06-05T02:03:19.874Z,18.92
2023-06-05T02:05:55.646Z,20.63
2023-06-05T02:08:29.259Z,24.27
2023-06-05T02:11:03.355Z,29.17
2023-06-05T02:13:35.624Z,21.77
2023-06-05T02:16:11.382Z,19.98
2023-06-05T02:18:43.475Z,19.63
2023-06-05T02:21:16.940Z,18.65
2023-06-05T02:23:50.921Z,20.20
2023-06-05T02:26:24.462Z,22.02
2023-06-05T02:28:57.071Z,23.40
2023-06-05T02:31:32.664Z,21.58
2023-06-05T02:34:04.706Z,28.65
2023-06-05T02:36:37.321Z,20.83
2023-06-05T02:39:09.341Z,23.13
2023-06-05T02:41:44.925Z,19.70
2023-06-05T02:44:16.977Z,19.65
2023-06-05T02:46:49.117Z,22.13
2023-06-05T02:49:21.500Z,20.95
2023-06-05T02:51:53.776Z,17.85
2023-06-05T02:54:26.541Z,19.35
2023-06-05T02:57:01.422Z,17.02
2023-06-05T02:59:40.660Z,19.67
2023-06-05T03:02:17.543Z,20.55
2023-06-05T03:04:54.410Z,22.10
2023-06-05T03:07:30.925Z,16.63
2023-06-05T03:10:03.215Z,16.92
2023-06-05T03:12:36.997Z,15.88
2023-06-05T03:15:10.842Z,18.08
2023-06-05T03:17:43.758Z,16.42
2023-06-05T03:20:20.381Z,16.15
2023-06-05T03:22:52.858Z,12.60
2023-06-05T03:25:24.893Z,8.68
2023-06-05T03:28:01.735Z,7.82
2023-06-05T03:30:35.594Z,5.88
2023-06-05T03:33:08.626Z,15.00
2023-06-05T03:35:46.545Z,13.75
2023-06-05T03:38:18.583Z,9.07
2023-06-05T03:40:51.609Z,10.70
2023-06-05T03:43:27.717Z,9.80
2023-06-05T03:45:59.827Z,4.63
2023-06-05T03:48:32.760Z,10.15
2023-06-05T03:51:07.112Z,4.95
2023-06-05T03:53:41.042Z,2.70
2023-06-05T03:56:16.511Z,2.20
2023-06-05T03:58:49.962Z,2.55
2023-06-05T04:01:22.346Z,3.63
2023-06-05T04:03:54.936Z,5.28
2023-06-05T04:06:27.321Z,1.45
2023-06-05T04:08:59.483Z,0.40
2023-06-05T04:11:34.328Z,2.13
2023-06-05T04:14:08.788Z,0.93
2023-06-05T04:16:42.958Z,0.50
2023-06-05T04:19:17.666Z,1.25
2023-06-05T04:21:52.560Z,1.10
2023-06-05T04:24:26.410Z,4.03
2023-06-05T04:27:01.891Z,1.90
2023-06-05T04:29:35.535Z,1.15
2023-06-05T04:32:08.613Z,0.63
2023-06-05T04:34:41.364Z,1.27
2023-06-05T04:37:13.483Z,0.90
2023-06-05T04:39:46.087Z,1.13
2023-06-05T04:42:19.054Z,0.57
2023-06-05T04:44:59.587Z,1.10
2023-06-05T04:47:33.442Z,1.90
2023-06-05T04:50:07.653Z,0.75
2023-06-05T04:52:41.997Z,0.60
2023-06-05T04:55:16.976Z,1.85
2023-06-05T04:57:49.678Z,0.20
2023-06-05T05:00:23.279Z,0.20
2023-06-05T05:02:55.577Z,0.15
2023-06-05T05:05:28.561Z,1.17
2023-06-05T05:08:02.549Z,1.02
2023-06-05T05:10:35.870Z,1.63
2023-06-05T05:13:08.417Z,0.75
2023-06-05T05:15:42.323Z,0.88
2023-06-05T05:18:14.333Z,1.05
2023-06-05T05:20:47.096Z,0.73
2023-06-05T05:23:19.177Z,0.82
2023-06-05T05:25:51.823Z,0.20
2023-06-05T05:28:24.099Z,0.10
2023-06-05T05:30:58.239Z,1.23
2023-06-05T05:33:30.522Z,0.20
2023-06-05T05:36:03.523Z,1.10
2023-06-05T05:38:35.595Z,0.50
2023-06-05T05:41:07.841Z,0.80
2023-06-05T05:43:39.994Z,0.35
2023-06-05T05:46:13.434Z,3.20
2023-06-05T05:48:45.555Z,5.72
2023-06-05T05:51:17.547Z,0.47
2023-06-05T05:53:49.573Z,0.30
2023-06-05T05:56:21.546Z,0.65
2023-06-05T05:58:53.529Z,0.55
2023-06-05T06:01:27.101Z,3.15
2023-06-05T06:03:59.138Z,1.88
2023-06-05T06:06:31.211Z,0.90
2023-06-05T06:09:03.532Z,0.52
2023-06-05T06:11:38.114Z,1.52
2023-06-05T06:14:11.408Z,1.33
2023-06-05T06:16:44.913Z,0.38
2023-06-05T06:19:17.409Z,3.05
2023-06-05T06:21:49.392Z,0.57
2023-06-05T06:24:22.629Z,2.25
2023-06-05T06:26:54.646Z,1.45
2023-06-05T06:29:28.782Z,0.20
2023-06-05T06:32:02.478Z,0.63
2023-06-05T06:34:34.514Z,1.33
2023-06-05T06:37:06.687Z,1.65
2023-06-05T06:39:38.748Z,1.40
2023-06-05T06:42:11.471Z,1.30
2023-06-05T06:44:46.513Z,2.17
2023-06-05T06:47:19.871Z,2.47
2023-06-05T06:49:52.259Z,0.75
2023-06-05T06:52:26.265Z,0.93
2023-06-05T06:54:58.520Z,0.93
2023-06-05T06:57:30.889Z,1.00
2023-06-05T07:00:03.040Z,0.77
2023-06-05T07:02:37.462Z,0.80
2023-06-05T07:05:10.284Z,2.03
2023-06-05T07:07:42.555Z,1.50
2023-06-05T07:10:14.721Z,1.50
2023-06-05T07:12:46.728Z,0.77
2023-06-05T07:15:18.715Z,4.78
2023-06-05T07:17:52.165Z,1.02
2023-06-05T07:20:24.243Z,0.68
2023-06-05T07:22:56.730Z,0.90
2023-06-05T07:25:29.512Z,1.75
2023-06-05T07:28:01.713Z,2.40
2023-06-05T07:30:33.676Z,0.20
2023-06-05T07:33:10.367Z,0.43
2023-06-05T07:35:46.603Z,0.57
2023-06-05T07:38:18.576Z,2.03
2023-06-05T07:40:50.645Z,1.35
2023-06-05T07:43:23.122Z,1.75
2023-06-05T07:45:55.640Z,0.82
2023-06-05T07:48:29.043Z,0.63
2023-06-05T07:51:01.023Z,1.73
2023-06-05T07:53:33.054Z,0.75
2023-06-05T07:56:05.452Z,0.38
2023-06-05T07:58:38.682Z,0.20
2023-06-05T08:01:11.653Z,0.40
2023-06-05T08:03:45.315Z,1.13
2023-06-05T08:06:17.484Z,1.30
2023-06-05T08:08:49.460Z,2.42
2023-06-05T08:11:21.460Z,0.82
2023-06-05T08:13:53.616Z,0.70
2023-06-05T08:16:25.740Z,0.52
2023-06-05T08:18:59.147Z,0.43
2023-06-05T08:21:31.487Z,0.43
2023-06-05T08:24:03.803Z,2.67
2023-06-05T08:26:37.338Z,0.20
2023-06-05T08:29:09.352Z,1.63
2023-06-05T08:31:41.788Z,0.57
2023-06-05T08:34:15.409Z,0.85
2023-06-05T08:36:47.436Z,0.77
2023-06-05T08:39:19.400Z,1.80
2023-06-05T08:41:53.168Z,0.82
2023-06-05T08:44:25.518Z,0.80
2023-06-05T08:47:01.863Z,3.80
2023-06-05T08:49:41.388Z,0.68
2023-06-05T08:52:15.339Z,2.08
2023-06-05T08:54:47.421Z,2.47
2023-06-05T08:57:20.154Z,2.03
2023-06-05T08:59:52.822Z,1.65
2023-06-05T09:02:25.045Z,0.90
2023-06-05T09:04:58.453Z,1.40
2023-06-05T09:07:30.495Z,0.85
2023-06-05T09:10:02.484Z,0.65
2023-06-05T09:12:53.849Z,3.60
2023-06-05T09:15:28.033Z,1.83
2023-06-05T09:18:09.384Z,0.60
2023-06-05T09:20:46.525Z,3.95
2023-06-05T09:23:30.500Z,0.63
2023-06-05T09:26:04.728Z,2.60
2023-06-05T09:28:36.748Z,1.10
2023-06-05T09:31:08.785Z,0.68
2023-06-05T09:33:40.811Z,1.75
2023-06-05T09:36:14.735Z,0.70
2023-06-05T09:38:46.810Z,3.50
2023-06-05T09:41:22.563Z,2.53
2023-06-05T09:43:54.546Z,1.60
2023-06-05T09:46:26.541Z,1.38
2023-06-05T09:49:02.378Z,0.65
2023-06-05T09:51:36.033Z,0.65
2023-06-05T09:54:08.082Z,2.40
2023-06-05T09:56:42.313Z,0.73
2023-06-05T09:59:17.468Z,0.30
2023-06-05T10:01:51.539Z,0.60
2023-06-05T10:04:25.026Z,1.00
2023-06-05T10:07:03.212Z,0.40
2023-06-05T10:09:36.214Z,1.98
2023-06-05T10:12:09.404Z,0.60
2023-06-05T10:14:43.798Z,2.50
2023-06-05T10:17:16.497Z,0.70
2023-06-05T10:19:48.853Z,2.33
2023-06-05T10:22:23.346Z,3.25
2023-06-05T10:25:01.577Z,0.68
2023-06-05T10:27:55.854Z,2.70
2023-06-05T10:30:55.622Z,0.52
2023-06-05T10:33:45.176Z,0.50
2023-06-05T10:36:33.283Z,1.33
2023-06-05T10:39:07.760Z,0.90
2023-06-05T10:41:40.135Z,3.10
2023-06-05T10:44:13.910Z,0.13
2023-06-05T10:46:45.993Z,0.40
2023-06-05T10:49:21.148Z,0.52
2023-06-05T10:51:55.116Z,0.70
2023-06-05T10:54:57.246Z,0.40
2023-06-05T10:58:11.319Z,1.05
2023-06-05T11:01:19.544Z,0.93
2023-06-05T11:03:57.332Z,0.60
2023-06-05T11:06:29.627Z,3.10
2023-06-05T11:09:10.196Z,0.80
2023-06-05T11:11:59.048Z,0.77
2023-06-05T11:14:46.015Z,2.10
2023-06-05T11:17:27.805Z,0.40
2023-06-05T11:20:00.311Z,3.05
2023-06-05T11:22:33.171Z,0.77
2023-06-05T11:25:28.334Z,0.52
2023-06-05T11:28:11.343Z,1.17
2023-06-05T11:30:49.562Z,2.67
2023-06-05T11:33:22.721Z,1.38
2023-06-05T11:36:02.142Z,1.77
2023-06-05T11:38:34.892Z,0.30
2023-06-05T11:41:09.384Z,0.30
2023-06-05T11:43:45.208Z,0.75
2023-06-05T11:46:18.736Z,0.80
2023-06-05T11:48:51.194Z,0.77
2023-06-05T11:51:23.187Z,0.65
2023-06-05T11:53:55.202Z,0.90
2023-06-05T11:56:28.836Z,2.30
2023-06-05T11:59:00.974Z,4.47
2023-06-05T12:01:34.855Z,1.42
2023-06-05T12:04:08.079Z,0.88
2023-06-05T12:06:44.508Z,2.35
2023-06-05T12:09:16.918Z,1.83
2023-06-05T12:11:49.405Z,0.95
2023-06-05T12:14:32.483Z,2.30
2023-06-05T12:17:13.118Z,2.28
2023-06-05T12:19:53.855Z,2.53
2023-06-05T12:22:25.931Z,3.28
2023-06-05T12:25:01.406Z,1.67
2023-06-05T12:27:42.861Z,2.20
2023-06-05T12:30:17.406Z,1.48
2023-06-05T12:32:52.425Z,1.52
2023-06-05T12:35:26.030Z,5.55
2023-06-05T12:38:00.979Z,14.38
2023-06-05T12:40:37.173Z,1.55
2023-06-05T12:43:18.579Z,0.80
2023-06-05T12:45:51.293Z,5.55
2023-06-05T12:48:25.089Z,4.93
2023-06-05T12:50:57.607Z,0.82
2023-06-05T12:53:29.739Z,4.85
2023-06-05T12:56:01.716Z,1.10
2023-06-05T12:58:33.822Z,2.63
2023-06-05T13:01:05.890Z,0.57
2023-06-05T13:03:39.456Z,1.60
2023-06-05T13:06:11.823Z,2.25
2023-06-05T13:08:44.546Z,1.38
2023-06-05T13:11:16.978Z,4.55
2023-06-05T13:13:49.092Z,1.05
2023-06-05T13:16:21.188Z,3.22
2023-06-05T13:18:54.610Z,6.85
2023-06-05T13:21:27.199Z,1.02
2023-06-05T13:23:59.275Z,0.68
2023-06-05T13:26:31.326Z,3.40
2023-06-05T13:29:03.362Z,3.72
2023-06-05T13:31:35.446Z,5.47
2023-06-05T13:34:08.958Z,4.20
2023-06-05T13:36:41.282Z,1.17
2023-06-05T13:39:13.291Z,1.08
2023-06-05T13:41:45.353Z,1.52
2023-06-05T13:44:17.400Z,1.45
2023-06-05T13:46:50.155Z,3.08
2023-06-05T13:49:23.576Z,5.07
2023-06-05T13:51:55.610Z,1.65
2023-06-05T13:54:27.817Z,3.42
2023-06-05T13:57:00.932Z,5.38
2023-06-05T13:59:32.910Z,6.22
2023-06-05T14:02:05.655Z,3.92
2023-06-05T14:04:39.267Z,0.35
2023-06-05T14:07:11.435Z,0.60
2023-06-05T14:09:43.455Z,0.40
2023-06-05T14:12:15.527Z,2.17
2023-06-05T14:14:47.645Z,6.22
2023-06-05T14:17:19.668Z,1.45
2023-06-05T14:19:54.726Z,0.77
2023-06-05T14:22:26.704Z,1.40
2023-06-05T14:24:58.765Z,0.82
2023-06-05T14:27:30.770Z,3.58
2023-06-05T14:30:03.380Z,2.05
2023-06-05T14:32:36.806Z,1.20
2023-06-05T14:35:10.728Z,0.85
2023-06-05T14:37:43.318Z,0.55
2023-06-05T14:40:15.533Z,1.80
2023-06-05T14:42:47.558Z,1.92
2023-06-05T14:45:19.625Z,2.20
2023-06-05T14:47:52.171Z,1.42
2023-06-05T14:50:25.887Z,1.60
2023-06-05T14:52:57.892Z,2.50
2023-06-05T14:55:29.952Z,2.97
2023-06-05T14:58:01.913Z,2.92
2023-06-05T15:00:33.996Z,1.95
2023-06-05T15:03:06.568Z,1.98
2023-06-05T15:05:40.191Z,1.02
2023-06-05T15:08:12.398Z,0.80
2023-06-05T15:10:44.426Z,3.50
2023-06-05T15:13:17.311Z,1.77
2023-06-05T15:15:49.637Z,2.15
2023-06-05T15:18:21.722Z,1.48
2023-06-05T15:20:55.163Z,3.42
2023-06-05T15:23:27.183Z,2.20
2023-06-05T15:25:59.203Z,1.83
2023-06-05T15:28:31.169Z,0.95
2023-06-05T15:31:03.343Z,2.45
2023-06-05T15:33:35.375Z,1.67
2023-06-05T15:36:09.096Z,3.03
2023-06-05T15:38:41.178Z,2.35
2023-06-05T15:41:14.935Z,4.85
2023-06-05T15:43:47.132Z,2.15
2023-06-05T15:46:19.150Z,1.75
2023-06-05T15:48:51.234Z,1.77
2023-06-05T15:51:28.420Z,1.13
2023-06-05T15:54:14.837Z,0.65
2023-06-05T15:57:02.886Z,0.70
2023-06-05T15:59:35.324Z,5.88
2023-06-05T16:02:07.811Z,0.63
2023-06-05T16:04:39.940Z,1.02
2023-06-05T16:07:13.370Z,1.30
2023-06-05T16:09:45.673Z,1.27
2023-06-05T16:12:18.717Z,1.65
2023-06-05T16:14:50.823Z,0.70
2023-06-05T16:17:22.950Z,5.88
2023-06-05T16:19:57.043Z,3.50
2023-06-05T16:22:32.321Z,2.45
2023-06-05T16:25:04.914Z,1.85
2023-06-05T16:27:37.145Z,3.78
2023-06-05T16:30:09.910Z,1.40
2023-06-05T16:32:41.945Z,2.38
2023-06-05T16:35:13.918Z,0.25
2023-06-05T16:37:47.486Z,1.58
2023-06-05T16:40:19.485Z,1.65
2023-06-05T16:42:51.574Z,11.02
2023-06-05T16:45:24.269Z,3.38
2023-06-05T16:47:56.369Z,0.52
2023-06-05T16:50:28.460Z,0.60
2023-06-05T16:53:02.310Z,1.35
2023-06-05T16:55:34.378Z,0.63
2023-06-05T16:58:06.649Z,0.63
2023-06-05T17:00:39.376Z,5.97
2023-06-05T17:03:11.842Z,1.13
2023-06-05T17:05:44.656Z,2.42
2023-06-05T17:08:19.005Z,0.98
2023-06-05T17:10:51.145Z,1.00
2023-06-05T17:13:23.202Z,0.75
2023-06-05T17:15:55.222Z,0.43
2023-06-05T17:18:27.412Z,7.93
2023-06-05T17:20:59.394Z,0.60
2023-06-05T17:23:33.367Z,3.22
2023-06-05T17:26:05.593Z,0.63
2023-06-05T17:28:37.599Z,0.88
2023-06-05T17:31:09.972Z,1.08
2023-06-05T17:33:43.209Z,1.88
2023-06-05T17:36:15.165Z,4.63
2023-06-05T17:38:48.701Z,2.22
2023-06-05T17:41:21.403Z,1.02
2023-06-05T17:43:55.647Z,1.00
2023-06-05T17:46:27.712Z,0.93
2023-06-05T17:48:59.893Z,1.77
2023-06-05T17:51:32.293Z,1.55
2023-06-05T17:54:06.061Z,0.43
2023-06-05T17:56:38.360Z,2.40
2023-06-05T17:59:10.510Z,0.73
2023-06-05T18:01:42.810Z,0.50
2023-06-05T18:04:15.262Z,0.98
2023-06-05T18:06:47.601Z,0.90
2023-06-05T18:09:21.501Z,0.77
2023-06-05T18:11:53.611Z,0.52
2023-06-05T18:14:25.706Z,0.57
2023-06-05T18:16:57.745Z,3.33
2023-06-05T18:19:29.762Z,1.75
2023-06-05T18:22:01.751Z,0.65
2023-06-05T18:24:35.120Z,1.05
2023-06-05T18:27:07.551Z,2.92
2023-06-05T18:29:39.931Z,0.70
2023-06-05T18:32:13.573Z,4.45
2023-06-05T18:34:45.844Z,1.67
2023-06-05T18:37:17.945Z,0.73
2023-06-05T18:39:51.336Z,1.05
2023-06-05T18:42:23.351Z,0.40
2023-06-05T18:44:57.576Z,1.00
2023-06-05T18:47:31.754Z,1.58
2023-06-05T18:50:03.937Z,1.73
2023-06-05T18:52:36.247Z,1.92
2023-06-05T18:55:10.384Z,1.27
2023-06-05T18:57:42.507Z,1.40
2023-06-05T19:00:15.036Z,2.45
2023-06-05T19:02:47.046Z,1.75
2023-06-05T19:05:19.051Z,3.05
2023-06-05T19:07:51.100Z,0.93
2023-06-05T19:10:24.473Z,2.03
2023-06-05T19:12:57.601Z,4.18
2023-06-05T19:15:29.614Z,1.00
2023-06-05T19:18:01.765Z,0.70
2023-06-05T19:20:34.548Z,2.58
2023-06-05T19:23:06.538Z,1.95
2023-06-05T19:25:40.049Z,3.35
2023-06-05T19:28:12.017Z,3.75
2023-06-05T19:30:44.067Z,1.75
2023-06-05T19:33:18.645Z,1.65
2023-06-05T19:35:50.917Z,2.55
2023-06-05T19:38:22.894Z,2.47
2023-06-05T19:40:57.103Z,0.90
2023-06-05T19:43:29.186Z,1.98
2023-06-05T19:46:01.728Z,1.83
2023-06-05T19:48:34.473Z,3.40
2023-06-05T19:51:07.010Z,2.30
2023-06-05T19:53:39.030Z,2.40
2023-06-05T19:56:17.964Z,1.67
2023-06-05T19:58:50.352Z,4.25
2023-06-05T20:01:22.781Z,1.55
2023-06-05T20:03:54.932Z,7.53
2023-06-05T20:06:26.961Z,4.13
2023-06-05T20:08:59.047Z,7.25
2023-06-05T20:11:32.705Z,4.80
2023-06-05T20:14:04.743Z,3.78
2023-06-05T20:16:37.066Z,3.38
2023-06-05T20:19:09.162Z,5.47
2023-06-05T20:21:41.138Z,5.50
2023-06-05T20:24:13.155Z,6.40
2023-06-05T20:26:46.790Z,9.50
2023-06-05T20:29:20.854Z,7.15
2023-06-05T20:31:53.067Z,7.10
2023-06-05T20:34:25.257Z,9.82
2023-06-05T20:36:57.294Z,15.20
2023-06-05T20:39:31.645Z,18.05
2023-06-05T20:42:10.322Z,29.08
2023-06-05T20:44:42.633Z,29.80
2023-06-05T20:47:18.049Z,28.63
2023-06-05T20:49:50.398Z,27.83
2023-06-05T20:52:22.424Z,26.55
2023-06-05T20:54:54.532Z,27.20
2023-06-05T20:57:28.067Z,26.45
2023-06-05T21:00:00.058Z,20.35
2023-06-05T21:02:32.664Z,32.80
2023-06-05T21:05:06.626Z,30.40
2023-06-05T21:07:38.681Z,25.55
2023-06-05T21:10:11.168Z,24.50
2023-06-05T21:12:45.685Z,17.10
2023-06-05T21:15:17.805Z,18.63
2023-06-05T21:17:50.047Z,14.52
2023-06-05T21:20:22.142Z,25.50
2023-06-05T21:22:54.948Z,36.42
2023-06-05T21:25:27.362Z,32.67
2023-06-05T21:28:00.854Z,31.50
2023-06-05T21:30:32.833Z,18.70
2023-06-05T21:33:05.815Z,33.83
2023-06-05T21:35:37.824Z,27.90
2023-06-05T21:38:09.855Z,23.30
2023-06-05T21:40:41.842Z,20.05
2023-06-05T21:43:15.170Z,44.95
2023-06-05T21:45:47.225Z,26.05
2023-06-05T21:48:21.533Z,27.60
2023-06-05T21:50:53.739Z,29.92
2023-06-05T21:53:25.684Z,35.45
2023-06-05T21:55:57.656Z,38.95
2023-06-05T21:58:31.035Z,38.33
2023-06-05T22:01:03.040Z,43.88
2023-06-05T22:03:35.124Z,39.58
2023-06-05T22:06:07.985Z,41.00
2023-06-05T22:08:40.051Z,35.72
2023-06-05T22:11:14.579Z,27.38
2023-06-05T22:13:47.922Z,33.47
2023-06-05T22:16:22.165Z,48.53
2023-06-05T22:18:54.478Z,54.30
2023-06-05T22:21:26.578Z,54.50
2023-06-05T22:23:59.852Z,48.35
2023-06-05T22:26:32.035Z,57.30
2023-06-05T22:29:05.697Z,49.22
2023-06-05T22:31:37.837Z,59.45
2023-06-05T22:34:09.893Z,76.20
2023-06-05T22:36:45.135Z,73.18
2023-06-05T22:39:17.353Z,57.38
2023-06-05T22:41:49.330Z,36.75
2023-06-05T22:44:24.656Z,42.75
2023-06-05T22:46:58.093Z,47.35
2023-06-05T22:49:30.144Z,40.10
2023-06-05T22:52:02.109Z,37.00
2023-06-05T22:54:34.104Z,30.27
2023-06-05T22:57:06.764Z,23.10
2023-06-05T22:59:41.433Z,19.15
2023-06-05T23:02:13.422Z,13.35
2023-06-05T23:04:46.107Z,13.65
2023-06-05T23:07:18.145Z,13.15
2023-06-05T23:09:50.230Z,12.35
2023-06-05T23:12:23.287Z,11.32
2023-06-05T23:14:57.873Z,7.93
2023-06-05T23:17:29.965Z,6.45
2023-06-05T23:20:02.206Z,9.82
2023-06-05T23:22:34.310Z,11.57
2023-06-05T23:25:06.774Z,7.22
2023-06-05T23:27:38.898Z,5.38
2023-06-05T23:30:12.824Z,5.03
2023-06-05T23:32:44.885Z,7.70
2023-06-05T23:35:16.873Z,9.98
2023-06-05T23:37:48.841Z,7.13
2023-06-05T23:40:21.166Z,8.57
2023-06-05T23:42:53.427Z,7.93
2023-06-05T23:45:28.569Z,7.53
2023-06-05T23:48:01.515Z,7.68
2023-06-05T23:50:33.914Z,10.25
2023-06-05T23:53:06.041Z,9.20
2023-06-05T23:55:40.038Z,10.27
2023-06-05T23:58:12.588Z,9.68
